Time;durP1;ratioP1;P1;durP2;ratioP2;P2;SDS_P1;SDS_P2;PMS_P1;PMS_P2;Temp;Humidity;BMP_temperature;BMP_pressure;BME280_temperature;BME280_humidity;BME280_pressure;Samples;Min_cycle;Max_cycle;Signal;HPM_P1;HPM_P2
2023/10/18 00:01:07;;;;;;;9.00;4.00;;;;;;;;;;4920784;29;20524;-75
2023/10/18 00:03:36;;;;;;;8.93;4.65;;;;;;;;;;4920044;29;20040;-77
2023/10/18 00:06:21;;;;;;;7.88;3.90;;;;;;;;;;4904545;29;20325;-77
2023/10/18 00:08:46;;;;;;;9.10;3.92;;;;;;;;;;4913425;29;20132;-77
2023/10/18 00:11:13;;;;;;;7.88;4.07;;;;;;;;;;4903053;29;20028;-77
2023/10/18 00:13:38;;;;;;;7.28;3.92;;;;;;;;;;4906970;29;20059;-76
2023/10/18 00:16:06;;;;;;;8.00;4.38;;;;;;;;;;4906008;29;20075;-77
2023/10/18 00:18:32;;;;;;;8.90;4.00;;;;;;;;;;4906750;29;20351;-77
2023/10/18 00:21:06;;;;;;;7.47;4.10;;;;;;;;;;4899005;29;20032;-76
2023/10/18 00:23:32;;;;;;;8.50;4.30;;;;;;;;;;4907492;29;20047;-77
2023/10/18 00:26:05;;;;;;;11.20;4.30;;;;;;;;;;4905584;29;20091;-77
2023/10/18 00:28:31;;;;;;;6.53;3.85;;;;;;;;;;4909594;29;20043;-79
2023/10/18 00:30:57;;;;;;;6.03;3.95;;;;;;;;;;4908858;29;20493;-77
2023/10/18 00:33:22;;;;;;;7.13;3.97;;;;;;;;;;4905668;29;20035;-77
2023/10/18 00:35:48;;;;;;;10.32;4.15;;;;;;;;;;4910059;29;20595;-76
2023/10/18 00:38:16;;;;;;;7.25;4.53;;;;;;;;;;4915126;29;20506;-78
2023/10/18 00:40:45;;;;;;;5.95;4.03;;;;;;;;;;4910163;29;20039;-77
2023/10/18 00:43:22;;;;;;;10.45;4.20;;;;;;;;;;4907179;29;20024;-76
2023/10/18 00:45:52;;;;;;;8.07;3.90;;;;;;;;;;4912585;29;20030;-77
2023/10/18 00:48:20;;;;;;;8.55;4.40;;;;;;;;;;4904227;29;20042;-76
2023/10/18 00:50:48;;;;;;;7.05;4.13;;;;;;;;;;4911602;29;20358;-76
2023/10/18 00:53:20;;;;;;;7.18;4.30;;;;;;;;;;4891068;29;20083;-77
2023/10/18 00:55:48;;;;;;;8.60;4.20;;;;;;;;;;4912864;29;20032;-77
2023/10/18 00:58:15;;;;;;;6.57;3.92;;;;;;;;;;4906222;29;20020;-76
2023/10/18 01:00:41;;;;;;;8.18;4.40;;;;;;;;;;4913139;29;20028;-77
2023/10/18 01:03:09;;;;;;;6.82;4.03;;;;;;;;;;4910114;29;20575;-77
2023/10/18 01:05:35;;;;;;;7.18;4.10;;;;;;;;;;4914138;29;20036;-76
2023/10/18 01:08:06;;;;;;;11.95;4.25;;;;;;;;;;4891578;29;20027;-77
2023/10/18 01:10:33;;;;;;;9.40;4.22;;;;;;;;;;4904774;29;20139;-77
2023/10/18 01:13:01;;;;;;;7.85;4.22;;;;;;;;;;4907738;29;20095;-77
2023/10/18 01:15:28;;;;;;;7.70;4.32;;;;;;;;;;4909375;29;20220;-77
2023/10/18 01:17:54;;;;;;;8.70;4.10;;;;;;;;;;4910628;29;20039;-77
2023/10/18 01:22:57;;;;;;;10.73;4.97;;;;;;;;;;4909906;29;20326;-77
2023/10/18 01:25:24;;;;;;;11.60;5.28;;;;;;;;;;4910111;29;20028;-77
2023/10/18 01:27:49;;;;;;;10.15;5.32;;;;;;;;;;4908358;29;20012;-77
2023/10/18 01:30:16;;;;;;;11.80;5.50;;;;;;;;;;4903094;29;20551;-78
2023/10/18 01:32:42;;;;;;;11.82;5.50;;;;;;;;;;4911848;29;20036;-77
2023/10/18 01:35:08;;;;;;;9.80;5.20;;;;;;;;;;4908220;29;20028;-77
2023/10/18 01:37:34;;;;;;;9.40;5.28;;;;;;;;;;4912990;29;20043;-77
2023/10/18 01:40:19;;;;;;;10.52;4.82;;;;;;;;;;4908421;29;20539;-77
2023/10/18 01:42:44;;;;;;;9.20;5.13;;;;;;;;;;4910687;29;20016;-76
2023/10/18 01:45:11;;;;;;;7.72;4.65;;;;;;;;;;4906880;29;20043;-77
2023/10/18 01:47:38;;;;;;;9.07;4.72;;;;;;;;;;4910248;29;20052;-77
2023/10/18 01:50:04;;;;;;;7.65;4.55;;;;;;;;;;4903052;29;20108;-76
2023/10/18 01:52:30;;;;;;;8.68;4.50;;;;;;;;;;4905717;29;20034;-77
2023/10/18 01:54:55;;;;;;;9.27;4.13;;;;;;;;;;4907192;29;20032;-76
2023/10/18 01:57:20;;;;;;;9.93;4.20;;;;;;;;;;4910865;29;20559;-76
2023/10/18 01:59:49;;;;;;;8.20;4.30;;;;;;;;;;4894009;29;20054;-76
2023/10/18 02:02:16;;;;;;;8.35;4.22;;;;;;;;;;4907872;29;20035;-76
2023/10/18 02:04:44;;;;;;;9.55;4.13;;;;;;;;;;4903622;29;20467;-77
2023/10/18 02:07:09;;;;;;;7.60;4.20;;;;;;;;;;4909587;29;20035;-77
2023/10/18 02:09:47;;;;;;;8.35;3.70;;;;;;;;;;4908982;29;20028;-78
2023/10/18 02:12:13;;;;;;;10.63;4.07;;;;;;;;;;4908027;29;20044;-77
2023/10/18 02:14:38;;;;;;;8.00;3.95;;;;;;;;;;4902483;29;20495;-77
2023/10/18 02:17:09;;;;;;;7.75;3.80;;;;;;;;;;4903077;29;20630;-76
2023/10/18 02:19:36;;;;;;;6.15;3.60;;;;;;;;;;4908829;29;20436;-77
2023/10/18 02:22:04;;;;;;;7.68;3.90;;;;;;;;;;4901541;29;20012;-76
2023/10/18 02:24:30;;;;;;;6.70;3.80;;;;;;;;;;4909637;29;20046;-77
2023/10/18 02:27:02;;;;;;;8.10;3.85;;;;;;;;;;4904467;29;20530;-76
2023/10/18 02:29:28;;;;;;;8.15;4.00;;;;;;;;;;4913192;29;20040;-77
2023/10/18 02:31:57;;;;;;;6.07;3.85;;;;;;;;;;4906184;29;20052;-76
2023/10/18 02:34:26;;;;;;;6.22;3.72;;;;;;;;;;4907814;29;20024;-77
2023/10/18 02:36:53;;;;;;;8.68;4.10;;;;;;;;;;4904455;29;20032;-77
2023/10/18 02:39:28;;;;;;;5.55;3.78;;;;;;;;;;4906074;29;20103;-76
2023/10/18 02:41:55;;;;;;;;;;;;;;;;;;4903494;29;20474;-77
2023/10/18 02:44:22;;;;;;;6.57;3.70;;;;;;;;;;4913930;29;19942;-76
2023/10/18 02:46:54;;;;;;;8.00;4.10;;;;;;;;;;4903308;29;20016;-76
2023/10/18 02:49:22;;;;;;;6.70;3.80;;;;;;;;;;4906848;29;20040;-76
2023/10/18 02:51:47;;;;;;;11.75;4.00;;;;;;;;;;4908833;29;20239;-77
2023/10/18 02:56:41;;;;;;;9.00;4.13;;;;;;;;;;4908077;29;20079;-75
2023/10/18 02:59:07;;;;;;;10.75;4.15;;;;;;;;;;4912997;29;20035;-77
2023/10/18 03:01:34;;;;;;;7.68;3.95;;;;;;;;;;4908132;29;20029;-77
2023/10/18 03:04:00;;;;;;;7.38;4.25;;;;;;;;;;4906190;29;20024;-76
2023/10/18 03:06:28;;;;;;;10.30;4.20;;;;;;;;;;4904029;29;20261;-77
2023/10/18 03:08:58;;;;;;;7.78;3.88;;;;;;;;;;4908601;29;20031;-74
2023/10/18 03:11:23;;;;;;;6.68;3.75;;;;;;;;;;4912171;29;20020;-75
2023/10/18 03:13:51;;;;;;;7.30;3.90;;;;;;;;;;4910967;29;20031;-75
2023/10/18 03:16:18;;;;;;;9.40;3.90;;;;;;;;;;4919346;29;20621;-74
2023/10/18 03:18:44;;;;;;;9.23;4.00;;;;;;;;;;4923437;29;20416;-77
2023/10/18 03:21:20;;;;;;;7.72;4.15;;;;;;;;;;4917993;29;20382;-77
2023/10/18 03:23:52;;;;;;;5.95;3.47;;;;;;;;;;4924753;29;20036;-75
2023/10/18 03:26:34;;;;;;;9.20;3.78;;;;;;;;;;4921654;29;20082;-77
2023/10/18 03:29:05;;;;;;;8.13;4.00;;;;;;;;;;4917525;29;20027;-76
2023/10/18 03:31:35;;;;;;;5.85;3.65;;;;;;;;;;4923114;29;20069;-77
2023/10/18 03:34:08;;;;;;;6.13;3.72;;;;;;;;;;4923443;29;20035;-76
2023/10/18 03:36:35;;;;;;;6.22;3.63;;;;;;;;;;4920855;29;20106;-77
2023/10/18 03:39:15;;;;;;;7.00;3.67;;;;;;;;;;4919457;29;20412;-76
2023/10/18 03:41:41;;;;;;;6.88;3.50;;;;;;;;;;4910858;29;20040;-77
2023/10/18 03:44:08;;;;;;;6.60;3.53;;;;;;;;;;4907162;29;20823;-79
2023/10/18 03:49:33;;;;;;;5.47;3.35;;;;;;;;;;4884133;29;20039;-78
2023/10/18 03:52:16;;;;;;;5.68;3.45;;;;;;;;;;4887976;29;20091;-76
2023/10/18 03:54:46;;;;;;;6.85;3.47;;;;;;;;;;4911307;29;20067;-78
2023/10/18 03:57:18;;;;;;;8.90;3.58;;;;;;;;;;4905947;29;20071;-78
2023/10/18 03:59:45;;;;;;;10.07;3.70;;;;;;;;;;4916418;29;20055;-76
2023/10/18 04:02:26;;;;;;;7.60;3.47;;;;;;;;;;4909706;29;20099;-77
2023/10/18 04:04:58;;;;;;;7.45;3.50;;;;;;;;;;4911238;29;20043;-76
2023/10/18 04:07:26;;;;;;;6.70;3.42;;;;;;;;;;4907424;29;20098;-77
2023/10/18 04:09:53;;;;;;;7.03;3.50;;;;;;;;;;4914268;29;20169;-76
2023/10/18 04:12:22;;;;;;;6.55;3.70;;;;;;;;;;4916593;29;20732;-78
2023/10/18 04:14:58;;;;;;;5.60;3.22;;;;;;;;;;4916384;29;20508;-76
2023/10/18 04:17:37;;;;;;;5.82;3.50;;;;;;;;;;4916044;29;20028;-78
2023/10/18 04:20:23;;;;;;;5.88;3.40;;;;;;;;;;4910971;29;20102;-76
2023/10/18 04:22:49;;;;;;;;;;;;;;;;;;4908112;29;20020;-76
2023/10/18 04:25:17;;;;;;;7.60;3.42;;;;;;;;;;4885024;29;19922;-76
2023/10/18 04:27:44;;;;;;;8.10;3.40;;;;;;;;;;4912680;29;20620;-78
2023/10/18 04:30:15;;;;;;;6.25;3.70;;;;;;;;;;4906751;29;20075;-78
2023/10/18 04:32:42;;;;;;;7.13;3.90;;;;;;;;;;4917909;29;20079;-77
2023/10/18 04:35:10;;;;;;;5.75;3.70;;;;;;;;;;4918720;29;20342;-79
2023/10/18 04:37:36;;;;;;;6.80;3.63;;;;;;;;;;4911867;29;20524;-79
2023/10/18 04:40:03;;;;;;;8.38;3.58;;;;;;;;;;4914410;29;20051;-76
2023/10/18 04:42:28;;;;;;;6.22;3.97;;;;;;;;;;4915231;29;20040;-77
2023/10/18 04:44:56;;;;;;;7.32;3.80;;;;;;;;;;4913364;29;20034;-77
2023/10/18 04:47:31;;;;;;;8.80;3.63;;;;;;;;;;4916130;29;20692;-79
2023/10/18 04:50:04;;;;;;;6.63;3.63;;;;;;;;;;4907342;29;20022;-76
2023/10/18 04:52:40;;;;;;;8.00;3.60;;;;;;;;;;4910384;29;20130;-76
2023/10/18 04:55:12;;;;;;;7.45;4.05;;;;;;;;;;4900676;29;20042;-78
2023/10/18 04:57:41;;;;;;;9.55;4.05;;;;;;;;;;4910331;29;20043;-77
2023/10/18 05:00:24;;;;;;;6.72;3.90;;;;;;;;;;4911402;29;20705;-78
2023/10/18 05:02:51;;;;;;;9.88;3.90;;;;;;;;;;4909787;29;20126;-78
2023/10/18 05:05:17;;;;;;;10.25;4.00;;;;;;;;;;4911888;29;20020;-78
2023/10/18 05:07:47;;;;;;;8.27;4.20;;;;;;;;;;4911936;29;20511;-78
2023/10/18 05:10:16;;;;;;;5.32;3.40;;;;;;;;;;4907118;29;20102;-78
2023/10/18 05:13:01;;;;;;;7.70;3.72;;;;;;;;;;4910827;29;20047;-78
2023/10/18 05:15:29;;;;;;;8.90;3.78;;;;;;;;;;4915859;29;20028;-76
2023/10/18 05:18:05;;;;;;;6.63;3.88;;;;;;;;;;4915042;29;20028;-76
2023/10/18 05:23:19;;;;;;;7.95;3.78;;;;;;;;;;4903874;29;20047;-76
2023/10/18 05:25:45;;;;;;;5.60;3.60;;;;;;;;;;4907780;29;20048;-76
2023/10/18 05:34:18;;;;;;;6.38;4.00;;;;;;;;;;4910693;29;20054;-76
2023/10/18 05:44:00;;;;;;;7.15;4.30;;;;;;;;;;4912143;29;20070;-76
2023/10/18 05:46:31;;;;;;;7.10;4.03;;;;;;;;;;4910398;29;20059;-77
2023/10/18 05:48:57;;;;;;;7.63;4.10;;;;;;;;;;4906303;29;20024;-77
2023/10/18 05:53:57;;;;;;;8.15;4.10;;;;;;;;;;4915464;29;20032;-76
2023/10/18 05:56:29;;;;;;;7.22;4.10;;;;;;;;;;4910833;29;20566;-77
2023/10/18 06:01:46;;;;;;;7.65;4.10;;;;;;;;;;4917927;29;20042;-78
2023/10/18 06:04:23;;;;;;;10.98;4.22;;;;;;;;;;4915372;29;20039;-78
2023/10/18 06:06:49;;;;;;;8.00;4.32;;;;;;;;;;4913246;29;20039;-75
2023/10/18 06:09:26;;;;;;;6.97;4.40;;;;;;;;;;4902770;29;20580;-74
2023/10/18 06:11:55;;;;;;;9.32;4.60;;;;;;;;;;4914974;29;20043;-75
2023/10/18 06:14:44;;;;;;;8.55;4.68;;;;;;;;;;4904931;29;20766;-77
2023/10/18 06:17:19;;;;;;;8.20;4.90;;;;;;;;;;4896056;29;20284;-78
2023/10/18 06:19:50;;;;;;;9.32;4.82;;;;;;;;;;4899397;29;20032;-78
2023/10/18 06:22:27;;;;;;;7.78;4.72;;;;;;;;;;4908192;28;20138;-78
2023/10/18 06:24:55;;;;;;;10.30;4.60;;;;;;;;;;4913380;29;20035;-77
2023/10/18 06:27:20;;;;;;;8.75;4.72;;;;;;;;;;4911541;29;20042;-78
2023/10/18 06:29:49;;;;;;;10.70;5.30;;;;;;;;;;4914621;29;20059;-77
2023/10/18 06:32:15;;;;;;;7.60;5.10;;;;;;;;;;4913433;29;20916;-77
2023/10/18 06:34:43;;;;;;;9.88;5.25;;;;;;;;;;4913329;29;20361;-78
2023/10/18 06:37:20;;;;;;;8.27;5.60;;;;;;;;;;4909793;29;20029;-77
2023/10/18 06:39:46;;;;;;;7.75;5.38;;;;;;;;;;4909845;29;20035;-77
2023/10/18 06:42:12;;;;;;;10.27;5.30;;;;;;;;;;4909561;29;20496;-76
2023/10/18 06:44:42;;;;;;;8.88;5.03;;;;;;;;;;4920416;29;20035;-77
2023/10/18 06:47:13;;;;;;;10.88;5.22;;;;;;;;;;4902537;29;20757;-77
2023/10/18 06:49:42;;;;;;;10.45;5.85;;;;;;;;;;4901921;29;20118;-77
2023/10/18 06:52:08;;;;;;;10.68;5.70;;;;;;;;;;4894039;29;20094;-78
2023/10/18 06:54:38;;;;;;;9.30;5.60;;;;;;;;;;4916813;29;20569;-77
2023/10/18 06:57:17;;;;;;;9.25;5.68;;;;;;;;;;4904517;29;20032;-76
2023/10/18 06:59:44;;;;;;;10.27;5.40;;;;;;;;;;4911490;29;20755;-77
2023/10/18 07:02:12;;;;;;;12.30;5.40;;;;;;;;;;4910241;29;20027;-77
2023/10/18 07:04:46;;;;;;;7.38;4.72;;;;;;;;;;4891798;29;20063;-76
2023/10/18 07:07:13;;;;;;;8.23;5.38;;;;;;;;;;4907706;29;20107;-77
2023/10/18 07:09:42;;;;;;;8.52;4.93;;;;;;;;;;4906175;29;20797;-77
2023/10/18 07:12:11;;;;;;;8.80;4.95;;;;;;;;;;4901586;29;20813;-78
2023/10/18 07:14:37;;;;;;;8.20;4.82;;;;;;;;;;4918260;29;20066;-76
2023/10/18 07:17:04;;;;;;;11.10;4.75;;;;;;;;;;4899129;29;20055;-76
2023/10/18 07:19:33;;;;;;;12.30;5.00;;;;;;;;;;4896467;29;20068;-77
2023/10/18 07:22:06;;;;;;;9.93;4.95;;;;;;;;;;4912869;29;20032;-77
2023/10/18 07:24:36;;;;;;;8.02;4.78;;;;;;;;;;4914331;29;20036;-77
2023/10/18 07:27:09;;;;;;;8.07;4.70;;;;;;;;;;4902211;29;20032;-77
2023/10/18 07:29:37;;;;;;;7.80;4.65;;;;;;;;;;4913911;29;20772;-78
2023/10/18 07:32:06;;;;;;;6.93;4.57;;;;;;;;;;4909715;29;20122;-77
2023/10/18 07:34:33;;;;;;;12.32;4.80;;;;;;;;;;4910113;29;20720;-77
2023/10/18 07:37:00;;;;;;;8.48;4.80;;;;;;;;;;4913141;29;20055;-78
2023/10/18 07:39:26;;;;;;;7.95;4.60;;;;;;;;;;4906427;29;20038;-78
2023/10/18 07:41:53;;;;;;;9.00;4.95;;;;;;;;;;4911034;29;20102;-78
2023/10/18 07:44:19;;;;;;;8.32;4.93;;;;;;;;;;4907887;29;20186;-78
2023/10/18 07:46:45;;;;;;;7.85;4.63;;;;;;;;;;4918603;29;20224;-78
2023/10/18 07:49:15;;;;;;;8.10;4.72;;;;;;;;;;4920271;29;20032;-78
2023/10/18 07:51:55;;;;;;;8.30;4.72;;;;;;;;;;4908305;29;20040;-78
2023/10/18 07:54:22;;;;;;;6.82;5.05;;;;;;;;;;4912140;29;20040;-78
2023/10/18 07:56:52;;;;;;;7.65;4.88;;;;;;;;;;4908311;29;20658;-78
2023/10/18 07:59:32;;;;;;;10.10;5.10;;;;;;;;;;4908511;29;20024;-78
2023/10/18 08:04:44;;;;;;;10.57;5.45;;;;;;;;;;4909502;29;20102;-78
2023/10/18 08:07:15;;;;;;;9.38;5.40;;;;;;;;;;4911658;29;20028;-78
2023/10/18 08:09:41;;;;;;;9.02;5.00;;;;;;;;;;4920269;29;20020;-78
2023/10/18 08:12:08;;;;;;;9.13;5.50;;;;;;;;;;4914682;29;20772;-78
2023/10/18 08:14:35;;;;;;;9.30;5.10;;;;;;;;;;4918751;29;20038;-80
2023/10/18 08:17:09;;;;;;;9.20;5.28;;;;;;;;;;4907354;29;20028;-78
2023/10/18 08:19:44;;;;;;;10.73;5.22;;;;;;;;;;4909998;29;20507;-77
2023/10/18 08:24:36;;;;;;;8.68;4.65;;;;;;;;;;4922572;29;20087;-77
2023/10/18 08:27:09;;;;;;;7.50;4.75;;;;;;;;;;4904380;29;20059;-77
2023/10/18 08:29:35;;;;;;;9.55;4.10;;;;;;;;;;4908183;29;20091;-77
2023/10/18 08:32:06;;;;;;;6.35;3.97;;;;;;;;;;4909196;29;20468;-77
2023/10/18 08:34:31;;;;;;;8.52;4.25;;;;;;;;;;4913241;29;20038;-76
2023/10/18 08:37:15;;;;;;;7.40;3.90;;;;;;;;;;4909239;29;20099;-77
2023/10/18 08:39:52;;;;;;;8.10;3.53;;;;;;;;;;4931221;29;20075;-77
2023/10/18 08:42:22;;;;;;;5.85;3.28;;;;;;;;;;4922213;29;20024;-76
2023/10/18 08:44:55;;;;;;;6.43;3.40;;;;;;;;;;4917193;29;20039;-77
2023/10/18 08:47:26;;;;;;;9.57;3.42;;;;;;;;;;4917645;29;20640;-77
2023/10/18 08:49:55;;;;;;;8.25;3.35;;;;;;;;;;4915201;29;20632;-76
2023/10/18 08:52:23;;;;;;;6.45;3.40;;;;;;;;;;4913869;29;20274;-75
2023/10/18 08:54:50;;;;;;;6.63;2.97;;;;;;;;;;4918978;29;20035;-76
2023/10/18 08:57:35;;;;;;;5.82;3.00;;;;;;;;;;4912326;29;20028;-77
2023/10/18 09:03:03;;;;;;;5.35;3.58;;;;;;;;;;4861810;29;20409;-76
2023/10/18 09:05:29;;;;;;;6.40;3.35;;;;;;;;;;4917785;29;20497;-77
2023/10/18 09:08:03;;;;;;;8.25;3.20;;;;;;;;;;4906385;29;20028;-77
2023/10/18 09:10:42;;;;;;;7.25;3.30;;;;;;;;;;4908076;29;20036;-77
2023/10/18 09:18:26;;;;;;;9.65;3.15;;;;;;;;;;4912147;29;20042;-77
2023/10/18 09:20:55;;;;;;;7.50;2.60;;;;;;;;;;4911643;29;20094;-75
2023/10/18 09:23:21;;;;;;;7.15;3.00;;;;;;;;;;4914059;29;20687;-76
2023/10/18 09:26:01;;;;;;;6.22;2.70;;;;;;;;;;4914004;29;20043;-75
2023/10/18 09:28:32;;;;;;;5.68;2.70;;;;;;;;;;4899030;29;20333;-76
2023/10/18 09:31:10;;;;;;;8.93;3.08;;;;;;;;;;4908893;29;20044;-76
2023/10/18 09:33:40;;;;;;;5.68;2.95;;;;;;;;;;4915643;29;20043;-76
2023/10/18 09:36:47;;;;;;;9.60;3.20;;;;;;;;;;4912760;29;20112;-76
2023/10/18 09:39:15;;;;;;;5.70;2.72;;;;;;;;;;4905921;29;20051;-77
2023/10/18 09:41:40;;;;;;;5.20;2.80;;;;;;;;;;4912196;29;20050;-76
2023/10/18 09:44:07;;;;;;;5.78;2.70;;;;;;;;;;4911147;29;20496;-78
2023/10/18 09:46:34;;;;;;;7.38;2.90;;;;;;;;;;4913304;29;20031;-76
2023/10/18 09:48:59;;;;;;;6.03;3.00;;;;;;;;;;4911583;29;20054;-76
2023/10/18 09:51:26;;;;;;;4.60;2.88;;;;;;;;;;4915676;29;20090;-76
2023/10/18 09:53:53;;;;;;;9.45;3.00;;;;;;;;;;4916761;29;20043;-76
2023/10/18 09:56:19;;;;;;;7.25;3.10;;;;;;;;;;4916355;29;20736;-75
2023/10/18 09:58:49;;;;;;;6.13;2.80;;;;;;;;;;4911657;29;20038;-77
2023/10/18 10:01:26;;;;;;;8.05;3.15;;;;;;;;;;4907448;29;20722;-77
2023/10/18 10:03:52;;;;;;;8.05;3.75;;;;;;;;;;4908118;29;20515;-76
2023/10/18 10:06:20;;;;;;;6.85;3.10;;;;;;;;;;4912065;29;20035;-76
2023/10/18 10:08:50;;;;;;;5.28;2.92;;;;;;;;;;4917789;29;20082;-77
2023/10/18 10:11:19;;;;;;;6.28;3.22;;;;;;;;;;4911226;29;20012;-77
2023/10/18 10:13:45;;;;;;;5.65;3.20;;;;;;;;;;4913666;29;20031;-77
2023/10/18 10:16:13;;;;;;;6.38;3.13;;;;;;;;;;4917266;29;20109;-77
2023/10/18 10:18:43;;;;;;;7.28;3.20;;;;;;;;;;4919045;29;20087;-76
2023/10/18 10:21:12;;;;;;;10.45;3.13;;;;;;;;;;4905706;29;20696;-77
2023/10/18 10:23:41;;;;;;;5.13;2.90;;;;;;;;;;4920286;29;20474;-77
2023/10/18 10:26:11;;;;;;;6.50;3.30;;;;;;;;;;4911387;29;20371;-76
2023/10/18 10:32:06;;;;;;;6.05;2.83;;;;;;;;;;4911458;29;20054;-78
2023/10/18 10:34:37;;;;;;;6.00;2.90;;;;;;;;;;4911569;29;20526;-75
2023/10/18 10:37:20;;;;;;;10.30;3.10;;;;;;;;;;4914106;29;20034;-76
2023/10/18 10:39:52;;;;;;;7.93;3.00;;;;;;;;;;4906335;29;20040;-76
2023/10/18 10:42:44;;;;;;;6.25;2.95;;;;;;;;;;4912852;29;20122;-77
2023/10/18 10:45:43;;;;;;;7.20;2.92;;;;;;;;;;4900393;29;20023;-76
2023/10/18 10:50:53;;;;;;;6.75;3.03;;;;;;;;;;4906033;29;20033;-76
2023/10/18 10:53:43;;;;;;;6.68;2.72;;;;;;;;;;4903647;29;20042;-77
2023/10/18 10:56:18;;;;;;;6.05;2.90;;;;;;;;;;4905459;29;20180;-75
2023/10/18 10:58:55;;;;;;;6.38;2.90;;;;;;;;;;4918638;29;20487;-76
2023/10/18 11:01:44;;;;;;;6.97;3.10;;;;;;;;;;4902998;29;20044;-76
2023/10/18 11:04:27;;;;;;;7.85;3.15;;;;;;;;;;4898168;29;20027;-76
2023/10/18 11:06:57;;;;;;;7.75;2.78;;;;;;;;;;4916859;29;20030;-76
2023/10/18 11:09:28;;;;;;;6.28;3.30;;;;;;;;;;4912121;29;20163;-76
2023/10/18 11:11:56;;;;;;;6.30;3.42;;;;;;;;;;4922243;29;20516;-75
2023/10/18 11:14:27;;;;;;;6.80;3.10;;;;;;;;;;4912197;29;20032;-77
2023/10/18 11:17:17;;;;;;;7.03;3.70;;;;;;;;;;4910589;29;20662;-76
2023/10/18 11:19:59;;;;;;;7.07;3.50;;;;;;;;;;4912740;29;20421;-77
2023/10/18 11:22:29;;;;;;;4.85;2.97;;;;;;;;;;4902396;29;20030;-77
2023/10/18 11:24:56;;;;;;;6.57;3.22;;;;;;;;;;4934977;29;20062;-76
2023/10/18 11:27:34;;;;;;;6.00;3.10;;;;;;;;;;4925290;29;20040;-76
2023/10/18 11:30:16;;;;;;;6.55;3.40;;;;;;;;;;4911322;29;20031;-75
2023/10/18 11:32:48;;;;;;;6.80;3.00;;;;;;;;;;4910546;29;20031;-76
2023/10/18 11:38:09;;;;;;;9.00;3.65;;;;;;;;;;4921558;29;20043;-76
2023/10/18 11:40:40;;;;;;;6.30;3.38;;;;;;;;;;4916787;29;20060;-76
2023/10/18 11:43:08;;;;;;;7.10;3.53;;;;;;;;;;4903292;29;20035;-77
2023/10/18 11:45:36;;;;;;;5.53;3.22;;;;;;;;;;4904107;29;20082;-76
2023/10/18 11:48:14;;;;;;;8.75;3.60;;;;;;;;;;4901146;29;20031;-76
2023/10/18 11:50:40;;;;;;;7.43;3.33;;;;;;;;;;4898974;29;20044;-78
2023/10/18 11:53:13;;;;;;;7.10;3.88;;;;;;;;;;4887758;29;20035;-77
2023/10/18 11:55:58;;;;;;;5.50;3.45;;;;;;;;;;4903814;29;20036;-78
2023/10/18 11:58:26;;;;;;;6.95;3.80;;;;;;;;;;4897880;29;20197;-78
2023/10/18 12:00:58;;;;;;;8.70;3.83;;;;;;;;;;4902464;29;20261;-77
2023/10/18 12:03:27;;;;;;;6.22;3.70;;;;;;;;;;4909456;29;20024;-78
2023/10/18 12:05:54;;;;;;;7.00;3.60;;;;;;;;;;4909646;29;20080;-77
2023/10/18 12:08:23;;;;;;;7.38;3.97;;;;;;;;;;4900018;29;20024;-77
2023/10/18 12:10:54;;;;;;;5.68;3.47;;;;;;;;;;4913210;29;20103;-77
2023/10/18 12:13:20;;;;;;;7.78;3.60;;;;;;;;;;4897828;29;20036;-78
2023/10/18 12:15:49;;;;;;;7.32;4.20;;;;;;;;;;4907597;29;20032;-77
2023/10/18 12:18:15;;;;;;;5.57;3.63;;;;;;;;;;4910872;29;20024;-77
2023/10/18 12:20:44;;;;;;;8.65;3.90;;;;;;;;;;4914587;29;20430;-78
2023/10/18 12:23:12;;;;;;;6.95;3.83;;;;;;;;;;4911641;29;20020;-77
2023/10/18 12:25:38;;;;;;;8.93;4.32;;;;;;;;;;4913551;29;20028;-77
2023/10/18 12:28:11;;;;;;;7.35;4.10;;;;;;;;;;4913768;29;20350;-77
2023/10/18 12:30:39;;;;;;;7.10;4.40;;;;;;;;;;4917554;29;20118;-77
2023/10/18 12:33:06;;;;;;;8.02;4.15;;;;;;;;;;4915089;29;20026;-76
2023/10/18 12:35:32;;;;;;;6.55;4.20;;;;;;;;;;4918055;29;20058;-78
2023/10/18 12:37:57;;;;;;;7.47;4.32;;;;;;;;;;4911027;29;20127;-76
2023/10/18 12:42:50;;;;;;;10.52;4.97;;;;;;;;;;4914936;29;20024;-77
2023/10/18 12:45:18;;;;;;;9.48;4.72;;;;;;;;;;4911980;29;20042;-76
2023/10/18 12:47:46;;;;;;;8.13;5.10;;;;;;;;;;4909043;29;20160;-77
2023/10/18 12:50:17;;;;;;;9.65;4.78;;;;;;;;;;4902987;29;20044;-77
2023/10/18 12:52:44;;;;;;;9.48;5.15;;;;;;;;;;4919573;29;20036;-77
2023/10/18 12:57:54;;;;;;;9.25;5.05;;;;;;;;;;4911026;29;20049;-77
2023/10/18 13:00:23;;;;;;;9.43;5.20;;;;;;;;;;4900722;29;20759;-77
2023/10/18 13:05:20;;;;;;;9.13;5.15;;;;;;;;;;4913007;29;20047;-77
2023/10/18 13:07:52;;;;;;;10.05;5.10;;;;;;;;;;4913437;29;20027;-77
2023/10/18 13:10:29;;;;;;;10.35;5.32;;;;;;;;;;4902581;29;20205;-77
2023/10/18 13:12:54;;;;;;;11.38;5.50;;;;;;;;;;4916070;29;20300;-77
2023/10/18 13:15:22;;;;;;;11.77;5.82;;;;;;;;;;4915820;29;20814;-77
2023/10/18 13:17:48;;;;;;;15.35;5.72;;;;;;;;;;4890134;29;20326;-76
2023/10/18 13:20:15;;;;;;;12.20;5.57;;;;;;;;;;4912231;29;20043;-77
2023/10/18 13:22:41;;;;;;;12.02;5.75;;;;;;;;;;4910737;29;20035;-77
2023/10/18 13:25:09;;;;;;;8.68;5.88;;;;;;;;;;4912885;29;20268;-77
2023/10/18 13:27:38;;;;;;;14.45;5.80;;;;;;;;;;4915989;29;20067;-78
2023/10/18 13:30:31;;;;;;;11.00;6.00;;;;;;;;;;4901025;29;20075;-77
2023/10/18 13:32:55;;;;;;;10.55;5.65;;;;;;;;;;4917979;29;20047;-78
2023/10/18 13:35:23;;;;;;;11.15;6.00;;;;;;;;;;4921832;29;20020;-78
2023/10/18 13:37:48;;;;;;;12.95;6.82;;;;;;;;;;4921829;29;20087;-77
2023/10/18 13:40:20;;;;;;;9.90;6.03;;;;;;;;;;4917405;29;20151;-78
2023/10/18 13:42:45;;;;;;;12.00;6.45;;;;;;;;;;4924387;29;20648;-79
2023/10/18 13:45:14;;;;;;;12.88;6.47;;;;;;;;;;4901433;29;20028;-79
2023/10/18 13:47:39;;;;;;;12.70;5.97;;;;;;;;;;4916383;29;20107;-78
2023/10/18 13:50:09;;;;;;;12.43;6.15;;;;;;;;;;4911598;29;20071;-80
2023/10/18 13:52:38;;;;;;;13.10;5.88;;;;;;;;;;4917585;29;20023;-80
2023/10/18 13:55:04;;;;;;;12.75;5.80;;;;;;;;;;4921563;29;20031;-76
2023/10/18 13:57:30;;;;;;;10.77;5.07;;;;;;;;;;4901183;29;20111;-78
2023/10/18 14:00:06;;;;;;;11.40;4.85;;;;;;;;;;4918900;29;20152;-80
2023/10/18 14:02:33;;;;;;;10.98;4.95;;;;;;;;;;4913877;29;20066;-75
2023/10/18 14:04:59;;;;;;;10.07;4.50;;;;;;;;;;4911542;29;20778;-77
2023/10/18 14:07:24;;;;;;;10.45;4.53;;;;;;;;;;4922293;29;20060;-78
2023/10/18 14:09:55;;;;;;;7.75;4.07;;;;;;;;;;4913549;29;20064;-77
2023/10/18 14:12:24;;;;;;;8.85;4.65;;;;;;;;;;4914515;29;20031;-77
2023/10/18 14:14:50;;;;;;;8.48;4.28;;;;;;;;;;4910391;29;20016;-78
2023/10/18 14:17:16;;;;;;;7.07;3.80;;;;;;;;;;4914253;29;20042;-76
2023/10/18 14:19:41;;;;;;;8.75;3.97;;;;;;;;;;4914696;29;20102;-75
2023/10/18 14:22:07;;;;;;;10.02;4.15;;;;;;;;;;4915880;29;20378;-77
2023/10/18 14:24:32;;;;;;;7.10;4.00;;;;;;;;;;4919386;29;20031;-79
2023/10/18 14:26:59;;;;;;;8.52;4.47;;;;;;;;;;4907831;29;20024;-78
2023/10/18 14:29:25;;;;;;;8.13;4.00;;;;;;;;;;4908871;29;20841;-78
2023/10/18 14:31:51;;;;;;;8.43;3.78;;;;;;;;;;4912734;29;20027;-79
2023/10/18 14:34:16;;;;;;;8.00;4.15;;;;;;;;;;4912698;29;20083;-77
2023/10/18 14:36:41;;;;;;;9.50;4.05;;;;;;;;;;4915349;29;20044;-76
2023/10/18 14:39:07;;;;;;;8.32;4.60;;;;;;;;;;4898092;29;20119;-77
2023/10/18 14:41:33;;;;;;;7.65;4.43;;;;;;;;;;4906603;29;20107;-76
2023/10/18 14:43:59;;;;;;;8.50;4.28;;;;;;;;;;4903871;29;20178;-77
2023/10/18 14:46:26;;;;;;;8.25;4.30;;;;;;;;;;4911509;29;20436;-77
2023/10/18 14:48:53;;;;;;;9.50;4.20;;;;;;;;;;4901764;29;20163;-76
2023/10/18 14:51:21;;;;;;;10.43;4.28;;;;;;;;;;4900534;29;20024;-76
2023/10/18 14:53:48;;;;;;;7.32;4.90;;;;;;;;;;4911093;29;20051;-75
2023/10/18 14:56:14;;;;;;;10.60;4.18;;;;;;;;;;4910470;29;20921;-77
2023/10/18 14:58:41;;;;;;;8.55;3.72;;;;;;;;;;4901983;29;20039;-75
2023/10/18 15:01:13;;;;;;;8.48;4.10;;;;;;;;;;4909013;28;20051;-77
2023/10/18 15:03:45;;;;;;;10.23;4.35;;;;;;;;;;4897132;29;20040;-76
2023/10/18 15:06:16;;;;;;;8.20;4.20;;;;;;;;;;4908129;29;20039;-79
2023/10/18 15:08:41;;;;;;;10.82;4.97;;;;;;;;;;4913018;28;20725;-77
2023/10/18 15:11:13;;;;;;;8.25;4.00;;;;;;;;;;4911269;29;20170;-77
2023/10/18 15:13:43;;;;;;;10.02;4.40;;;;;;;;;;4892329;29;20031;-77
2023/10/18 15:16:10;;;;;;;10.38;4.30;;;;;;;;;;4909557;29;20016;-78
2023/10/18 15:18:36;;;;;;;7.55;4.18;;;;;;;;;;4902171;29;20035;-77
2023/10/18 15:21:03;;;;;;;9.38;4.13;;;;;;;;;;4915412;29;20027;-77
2023/10/18 15:23:29;;;;;;;7.20;3.58;;;;;;;;;;4912589;29;20130;-77
2023/10/18 15:26:03;;;;;;;7.65;4.20;;;;;;;;;;4910174;29;20699;-77
2023/10/18 15:28:31;;;;;;;10.45;3.55;;;;;;;;;;4916837;29;20039;-79
2023/10/18 15:31:14;;;;;;;8.00;3.55;;;;;;;;;;4903565;29;20698;-78
2023/10/18 15:33:42;;;;;;;8.23;3.65;;;;;;;;;;4906804;29;20174;-75
2023/10/18 15:36:22;;;;;;;7.63;3.70;;;;;;;;;;4911492;29;20034;-77
2023/10/18 15:38:49;;;;;;;9.55;3.97;;;;;;;;;;4906809;29;20027;-76
2023/10/18 15:41:18;;;;;;;8.43;4.40;;;;;;;;;;4907392;29;20442;-76
2023/10/18 15:43:44;;;;;;;8.40;3.50;;;;;;;;;;4903031;29;20024;-76
2023/10/18 15:46:11;;;;;;;7.25;3.70;;;;;;;;;;4915174;29;20031;-78
2023/10/18 15:48:36;;;;;;;5.10;2.40;;;;;;;;;;4889311;29;20032;-78
2023/10/18 15:51:02;;;;;;;4.68;2.63;;;;;;;;;;4911103;29;20043;-78
2023/10/18 15:53:28;;;;;;;5.20;2.40;;;;;;;;;;4915323;29;20043;-76
2023/10/18 15:55:54;;;;;;;7.00;3.00;;;;;;;;;;4905742;29;20020;-76